Airfield :
LOGIN :

Register | Disclaimer

   EN    FR    IT 

 










Legend :    VFR   Marginal VFR   IFR   Intensive IFR   Very Intensive IFR
Visi :
Ceiling :
>= 8 km
>= 3000ft
5 to 8 km
1000 to 3000 ft
1500m to 5 km
500 to 1000 ft
800 to 1500m
200 to 500 ft
< 800m
< 200 ft
Symbols :   Thunderstorms  Fog  Heavy snow  Heavy precipitations  Wind > 20 kt
SIGMETs :     Misc.  Thunderstorms  Icing  Turbulence  Mountain Waves  Volcanic Ashes







- Airport Elevation : 935 ft


EBFS - Florennes

CURRENT METAR :
  • 191425Z 22011KT 9999 FEW035 SCT200 24/12 Q1018 BLU BLU

EXPIRED METARs :
  • 191355Z 22011KT 9999 FEW035 SCT200 24/12 Q1018 BLU BLU
  • 191325Z 20013G23KT 9999 FEW035 SCT200 24/13 Q1018 BLU BLU
  • 191255Z 20013G23KT 9999 FEW032 SCT200 24/13 Q1018 BLU BLU
  • 191225Z 21013G24KT 9999 FEW032 SCT200 23/13 Q1019 BLU BLU
  • 191155Z 23010KT 9999 FEW030 SCT040 23/13 Q1019 BLU BLU

TAF TAF EBFS
Valid from the 19 at 13:00 until the 19 at 22:00 UTC


191141Z 1913/1922 22015G25KT 9999 FEW030 SCT200
BECMG 1916/1918 22010G20KT
TEMPO 1918/1922 FEW035 SCT100 BKN200
No reported NOTAMs for that airfield.



MET'MAP, your aeronautical weather chart ! - Copyright ORBIFLY December 2007 - Disclaimer

ORBIFLY MET'MAP TEAM :

Programming & Development : Alexandra Zaïnal
Concept & Development : Baudouin d'Aumeries
Co-Development & Prog : Marc-Olivier Méhu
Technical & hardware support : Manuel Goepfert

Contact : metmap@orbifly.com




SOURCES & CREDITS :

   NOAA